sensor_id;sensor_type;location;lat;lon;timestamp;pressure;altitude;pressure_sealevel;temperature
74321;BMP280;62738;45.772;4.804;2023-04-26T00:00:46;99705.91;;;13.55
74321;BMP280;62738;45.772;4.804;2023-04-26T00:03:13;99709.28;;;13.44
74321;BMP280;62738;45.772;4.804;2023-04-26T00:05:40;99717.00;;;13.17
74321;BMP280;62738;45.772;4.804;2023-04-26T00:08:08;99706.94;;;13.41
74321;BMP280;62738;45.772;4.804;2023-04-26T00:10:35;99711.84;;;13.13
74321;BMP280;62738;45.772;4.804;2023-04-26T00:13:07;99713.72;;;12.92
74321;BMP280;62738;45.772;4.804;2023-04-26T00:15:34;99707.44;;;12.64
74321;BMP280;62738;45.772;4.804;2023-04-26T00:18:01;99717.94;;;12.56
74321;BMP280;62738;45.772;4.804;2023-04-26T00:20:27;99713.88;;;12.30
74321;BMP280;62738;45.772;4.804;2023-04-26T00:22:54;99715.28;;;12.05
74321;BMP280;62738;45.772;4.804;2023-04-26T00:25:21;99718.41;;;11.91
74321;BMP280;62738;45.772;4.804;2023-04-26T00:27:47;99710.06;;;11.91
74321;BMP280;62738;45.772;4.804;2023-04-26T00:30:14;99713.44;;;11.73
74321;BMP280;62738;45.772;4.804;2023-04-26T00:32:41;99704.94;;;11.71
74321;BMP280;62738;45.772;4.804;2023-04-26T00:35:08;99711.53;;;11.75
74321;BMP280;62738;45.772;4.804;2023-04-26T00:37:34;99712.00;;;11.89
74321;BMP280;62738;45.772;4.804;2023-04-26T00:40:01;99712.28;;;11.93
74321;BMP280;62738;45.772;4.804;2023-04-26T00:42:28;99720.44;;;11.91
74321;BMP280;62738;45.772;4.804;2023-04-26T00:44:54;99711.16;;;12.23
74321;BMP280;62738;45.772;4.804;2023-04-26T00:47:24;99718.53;;;12.28
74321;BMP280;62738;45.772;4.804;2023-04-26T00:49:51;99716.03;;;12.32
74321;BMP280;62738;45.772;4.804;2023-04-26T00:52:18;99723.09;;;12.33
74321;BMP280;62738;45.772;4.804;2023-04-26T00:54:47;99724.06;;;12.45
74321;BMP280;62738;45.772;4.804;2023-04-26T00:57:14;99722.13;;;12.38
74321;BMP280;62738;45.772;4.804;2023-04-26T00:59:40;99718.94;;;12.24
74321;BMP280;62738;45.772;4.804;2023-04-26T01:02:07;99726.56;;;12.24
74321;BMP280;62738;45.772;4.804;2023-04-26T01:04:34;99722.13;;;12.38
74321;BMP280;62738;45.772;4.804;2023-04-26T01:07:02;99720.19;;;12.67
74321;BMP280;62738;45.772;4.804;2023-04-26T01:09:30;99724.97;;;12.57
74321;BMP280;62738;45.772;4.804;2023-04-26T01:11:57;99720.47;;;12.62
74321;BMP280;62738;45.772;4.804;2023-04-26T01:14:24;99723.78;;;12.24
74321;BMP280;62738;45.772;4.804;2023-04-26T01:16:51;99715.38;;;12.41
74321;BMP280;62738;45.772;4.804;2023-04-26T01:19:18;99709.66;;;12.39
74321;BMP280;62738;45.772;4.804;2023-04-26T01:21:45;99704.72;;;12.20
74321;BMP280;62738;45.772;4.804;2023-04-26T01:24:12;99706.09;;;12.29
74321;BMP280;62738;45.772;4.804;2023-04-26T01:26:40;99694.44;;;12.40
74321;BMP280;62738;45.772;4.804;2023-04-26T01:29:19;99703.94;;;12.64
74321;BMP280;62738;45.772;4.804;2023-04-26T01:31:47;99700.88;;;13.06
74321;BMP280;62738;45.772;4.804;2023-04-26T01:34:14;99704.81;;;13.03
74321;BMP280;62738;45.772;4.804;2023-04-26T01:36:41;99691.53;;;13.40
74321;BMP280;62738;45.772;4.804;2023-04-26T01:39:08;99699.13;;;13.10
74321;BMP280;62738;45.772;4.804;2023-04-26T01:41:35;99704.34;;;12.97
74321;BMP280;62738;45.772;4.804;2023-04-26T01:44:02;99691.84;;;12.79
74321;BMP280;62738;45.772;4.804;2023-04-26T01:46:29;99700.22;;;12.52
74321;BMP280;62738;45.772;4.804;2023-04-26T01:48:56;99715.47;;;12.33
74321;BMP280;62738;45.772;4.804;2023-04-26T01:51:22;99703.69;;;12.43
74321;BMP280;62738;45.772;4.804;2023-04-26T01:53:49;99701.47;;;12.41
74321;BMP280;62738;45.772;4.804;2023-04-26T01:56:16;99696.81;;;12.44
74321;BMP280;62738;45.772;4.804;2023-04-26T01:58:43;99710.34;;;12.30
74321;BMP280;62738;45.772;4.804;2023-04-26T02:01:10;99713.25;;;12.32
74321;BMP280;62738;45.772;4.804;2023-04-26T02:03:37;99699.44;;;12.42
74321;BMP280;62738;45.772;4.804;2023-04-26T02:06:04;99700.34;;;12.81
74321;BMP280;62738;45.772;4.804;2023-04-26T02:08:30;99702.56;;;12.92
74321;BMP280;62738;45.772;4.804;2023-04-26T02:10:57;99708.31;;;13.03
74321;BMP280;62738;45.772;4.804;2023-04-26T02:13:24;99711.97;;;12.96
74321;BMP280;62738;45.772;4.804;2023-04-26T02:15:51;99714.56;;;12.48
74321;BMP280;62738;45.772;4.804;2023-04-26T02:18:18;99698.41;;;12.73
74321;BMP280;62738;45.772;4.804;2023-04-26T02:20:47;99692.00;;;12.90
74321;BMP280;62738;45.772;4.804;2023-04-26T02:23:14;99695.81;;;12.95
74321;BMP280;62738;45.772;4.804;2023-04-26T02:25:44;99688.59;;;12.82
74321;BMP280;62738;45.772;4.804;2023-04-26T02:28:11;99697.47;;;13.07
74321;BMP280;62738;45.772;4.804;2023-04-26T02:30:37;99694.44;;;13.23
74321;BMP280;62738;45.772;4.804;2023-04-26T02:33:04;99682.97;;;13.09
74321;BMP280;62738;45.772;4.804;2023-04-26T02:35:30;99689.13;;;13.07
74321;BMP280;62738;45.772;4.804;2023-04-26T02:37:57;99679.78;;;13.12
74321;BMP280;62738;45.772;4.804;2023-04-26T02:40:24;99682.31;;;12.82
74321;BMP280;62738;45.772;4.804;2023-04-26T02:42:50;99693.06;;;12.58
74321;BMP280;62738;45.772;4.804;2023-04-26T02:45:17;99690.09;;;12.47
74321;BMP280;62738;45.772;4.804;2023-04-26T02:47:44;99698.88;;;12.26
74321;BMP280;62738;45.772;4.804;2023-04-26T02:50:10;99692.72;;;12.54
74321;BMP280;62738;45.772;4.804;2023-04-26T02:52:37;99683.94;;;12.48
74321;BMP280;62738;45.772;4.804;2023-04-26T02:55:04;99692.59;;;12.79
74321;BMP280;62738;45.772;4.804;2023-04-26T02:57:31;99695.03;;;12.75
74321;BMP280;62738;45.772;4.804;2023-04-26T02:59:58;99700.81;;;12.50
74321;BMP280;62738;45.772;4.804;2023-04-26T03:02:25;99693.94;;;12.51
74321;BMP280;62738;45.772;4.804;2023-04-26T03:04:52;99687.69;;;12.70
74321;BMP280;62738;45.772;4.804;2023-04-26T03:07:19;99677.56;;;13.21
74321;BMP280;62738;45.772;4.804;2023-04-26T03:09:45;99677.41;;;13.18
74321;BMP280;62738;45.772;4.804;2023-04-26T03:12:12;99674.16;;;12.57
74321;BMP280;62738;45.772;4.804;2023-04-26T03:14:39;99677.91;;;12.88
74321;BMP280;62738;45.772;4.804;2023-04-26T03:17:05;99684.69;;;12.95
74321;BMP280;62738;45.772;4.804;2023-04-26T03:19:32;99690.13;;;13.02
74321;BMP280;62738;45.772;4.804;2023-04-26T03:21:59;99684.81;;;12.87
74321;BMP280;62738;45.772;4.804;2023-04-26T03:24:25;99683.41;;;13.15
74321;BMP280;62738;45.772;4.804;2023-04-26T03:26:52;99675.31;;;13.00
74321;BMP280;62738;45.772;4.804;2023-04-26T03:29:18;99676.66;;;12.99
74321;BMP280;62738;45.772;4.804;2023-04-26T03:31:45;99680.28;;;12.92
74321;BMP280;62738;45.772;4.804;2023-04-26T03:34:12;99671.84;;;13.09
74321;BMP280;62738;45.772;4.804;2023-04-26T03:36:39;99682.69;;;13.05
74321;BMP280;62738;45.772;4.804;2023-04-26T03:39:05;99678.84;;;13.00
74321;BMP280;62738;45.772;4.804;2023-04-26T03:41:32;99679.44;;;12.99
74321;BMP280;62738;45.772;4.804;2023-04-26T03:44:02;99676.09;;;13.10
74321;BMP280;62738;45.772;4.804;2023-04-26T03:46:28;99683.13;;;13.21
74321;BMP280;62738;45.772;4.804;2023-04-26T03:48:55;99671.84;;;13.09
74321;BMP280;62738;45.772;4.804;2023-04-26T03:51:22;99663.66;;;13.11
74321;BMP280;62738;45.772;4.804;2023-04-26T03:53:48;99676.06;;;13.00
74321;BMP280;62738;45.772;4.804;2023-04-26T03:56:15;99674.09;;;12.84
74321;BMP280;62738;45.772;4.804;2023-04-26T03:58:42;99681.72;;;12.83
74321;BMP280;62738;45.772;4.804;2023-04-26T04:01:09;99681.44;;;12.16
74321;BMP280;62738;45.772;4.804;2023-04-26T04:03:35;99676.28;;;12.12
74321;BMP280;62738;45.772;4.804;2023-04-26T04:06:06;99670.28;;;11.89
74321;BMP280;62738;45.772;4.804;2023-04-26T04:08:33;99681.00;;;11.58
74321;BMP280;62738;45.772;4.804;2023-04-26T04:11:00;99677.06;;;11.27
74321;BMP280;62738;45.772;4.804;2023-04-26T04:13:27;99686.56;;;11.16
74321;BMP280;62738;45.772;4.804;2023-04-26T04:15:53;99688.84;;;11.10
74321;BMP280;62738;45.772;4.804;2023-04-26T04:18:20;99694.56;;;11.54
74321;BMP280;62738;45.772;4.804;2023-04-26T04:20:47;99691.44;;;11.84
74321;BMP280;62738;45.772;4.804;2023-04-26T04:23:13;99699.53;;;11.90
74321;BMP280;62738;45.772;4.804;2023-04-26T04:25:40;99685.13;;;12.28
74321;BMP280;62738;45.772;4.804;2023-04-26T04:28:07;99696.56;;;12.32
74321;BMP280;62738;45.772;4.804;2023-04-26T04:30:33;99696.72;;;12.07
74321;BMP280;62738;45.772;4.804;2023-04-26T04:33:00;99697.56;;;12.44
74321;BMP280;62738;45.772;4.804;2023-04-26T04:35:29;99695.66;;;12.47
74321;BMP280;62738;45.772;4.804;2023-04-26T04:37:59;99714.06;;;12.42
74321;BMP280;62738;45.772;4.804;2023-04-26T04:40:27;99707.13;;;12.07
74321;BMP280;62738;45.772;4.804;2023-04-26T04:42:54;99708.50;;;11.98
74321;BMP280;62738;45.772;4.804;2023-04-26T04:45:21;99710.63;;;12.51
74321;BMP280;62738;45.772;4.804;2023-04-26T04:47:47;99708.50;;;12.15
74321;BMP280;62738;45.772;4.804;2023-04-26T04:50:14;99705.31;;;12.19
74321;BMP280;62738;45.772;4.804;2023-04-26T04:52:41;99711.53;;;12.10
74321;BMP280;62738;45.772;4.804;2023-04-26T04:55:07;99699.47;;;12.24
74321;BMP280;62738;45.772;4.804;2023-04-26T04:57:35;99692.72;;;12.54
74321;BMP280;62738;45.772;4.804;2023-04-26T05:00:02;99697.16;;;12.57
74321;BMP280;62738;45.772;4.804;2023-04-26T05:02:36;99701.31;;;12.39
74321;BMP280;62738;45.772;4.804;2023-04-26T05:05:04;99706.06;;;12.02
74321;BMP280;62738;45.772;4.804;2023-04-26T05:07:31;99714.00;;;11.54
74321;BMP280;62738;45.772;4.804;2023-04-26T05:09:58;99710.94;;;11.25
74321;BMP280;62738;45.772;4.804;2023-04-26T05:12:25;99724.88;;;10.93
74321;BMP280;62738;45.772;4.804;2023-04-26T05:14:52;99719.84;;;11.24
74321;BMP280;62738;45.772;4.804;2023-04-26T05:17:19;99726.16;;;11.41
74321;BMP280;62738;45.772;4.804;2023-04-26T05:19:45;99727.34;;;11.56
74321;BMP280;62738;45.772;4.804;2023-04-26T05:22:12;99727.06;;;11.44
74321;BMP280;62738;45.772;4.804;2023-04-26T05:24:47;99732.97;;;11.82
74321;BMP280;62738;45.772;4.804;2023-04-26T05:27:14;99723.66;;;11.70
74321;BMP280;62738;45.772;4.804;2023-04-26T05:29:40;99735.91;;;11.50
74321;BMP280;62738;45.772;4.804;2023-04-26T05:32:07;99729.69;;;11.76
74321;BMP280;62738;45.772;4.804;2023-04-26T05:34:34;99735.50;;;12.05
74321;BMP280;62738;45.772;4.804;2023-04-26T05:37:02;99737.13;;;12.08
74321;BMP280;62738;45.772;4.804;2023-04-26T05:39:29;99740.31;;;12.05
74321;BMP280;62738;45.772;4.804;2023-04-26T05:41:56;99732.47;;;11.93
74321;BMP280;62738;45.772;4.804;2023-04-26T05:44:22;99739.22;;;12.34
74321;BMP280;62738;45.772;4.804;2023-04-26T05:46:49;99742.69;;;12.52
74321;BMP280;62738;45.772;4.804;2023-04-26T05:49:16;99737.69;;;12.78
74321;BMP280;62738;45.772;4.804;2023-04-26T05:51:42;99736.81;;;12.85
74321;BMP280;62738;45.772;4.804;2023-04-26T05:54:09;99741.50;;;12.55
74321;BMP280;62738;45.772;4.804;2023-04-26T05:56:35;99744.13;;;12.44
74321;BMP280;62738;45.772;4.804;2023-04-26T05:59:02;99735.19;;;12.72
74321;BMP280;62738;45.772;4.804;2023-04-26T06:01:29;99748.72;;;12.58
74321;BMP280;62738;45.772;4.804;2023-04-26T06:03:56;99745.41;;;12.43
74321;BMP280;62738;45.772;4.804;2023-04-26T06:06:26;99735.78;;;12.80
74321;BMP280;62738;45.772;4.804;2023-04-26T06:08:53;99742.13;;;12.90
74321;BMP280;62738;45.772;4.804;2023-04-26T06:11:21;99752.31;;;13.05
74321;BMP280;62738;45.772;4.804;2023-04-26T06:13:47;99746.22;;;13.35
74321;BMP280;62738;45.772;4.804;2023-04-26T06:16:14;99748.00;;;13.50
74321;BMP280;62738;45.772;4.804;2023-04-26T06:18:42;99745.94;;;13.31
74321;BMP280;62738;45.772;4.804;2023-04-26T06:21:08;99749.59;;;13.34
74321;BMP280;62738;45.772;4.804;2023-04-26T06:23:35;99748.75;;;13.60
74321;BMP280;62738;45.772;4.804;2023-04-26T06:26:02;99762.28;;;13.64
74321;BMP280;62738;45.772;4.804;2023-04-26T06:28:28;99761.34;;;13.42
74321;BMP280;62738;45.772;4.804;2023-04-26T06:30:55;99756.78;;;12.91
74321;BMP280;62738;45.772;4.804;2023-04-26T06:33:21;99760.31;;;12.91
74321;BMP280;62738;45.772;4.804;2023-04-26T06:35:48;99754.69;;;13.18
74321;BMP280;62738;45.772;4.804;2023-04-26T06:38:15;99766.03;;;13.39
74321;BMP280;62738;45.772;4.804;2023-04-26T06:40:41;99764.75;;;13.59
74321;BMP280;62738;45.772;4.804;2023-04-26T06:43:08;99755.81;;;13.71
74321;BMP280;62738;45.772;4.804;2023-04-26T06:45:35;99757.84;;;13.80
74321;BMP280;62738;45.772;4.804;2023-04-26T06:48:02;99757.56;;;13.76
74321;BMP280;62738;45.772;4.804;2023-04-26T06:50:30;99764.16;;;14.19
74321;BMP280;62738;45.772;4.804;2023-04-26T06:52:56;99761.09;;;13.86
74321;BMP280;62738;45.772;4.804;2023-04-26T06:55:23;99764.72;;;13.50
74321;BMP280;62738;45.772;4.804;2023-04-26T06:57:50;99754.31;;;13.79
74321;BMP280;62738;45.772;4.804;2023-04-26T07:00:17;99750.50;;;13.75
74321;BMP280;62738;45.772;4.804;2023-04-26T07:02:44;99744.78;;;13.92
74321;BMP280;62738;45.772;4.804;2023-04-26T07:05:11;99751.09;;;14.02
74321;BMP280;62738;45.772;4.804;2023-04-26T07:07:38;99748.00;;;13.79
74321;BMP280;62738;45.772;4.804;2023-04-26T07:10:06;99759.78;;;13.68
74321;BMP280;62738;45.772;4.804;2023-04-26T07:12:33;99759.94;;;13.89
74321;BMP280;62738;45.772;4.804;2023-04-26T07:15:00;99754.91;;;13.97
74321;BMP280;62738;45.772;4.804;2023-04-26T07:17:26;99764.13;;;13.42
74321;BMP280;62738;45.772;4.804;2023-04-26T07:19:53;99758.56;;;13.32
74321;BMP280;62738;45.772;4.804;2023-04-26T07:22:21;99751.53;;;12.95
74321;BMP280;62738;45.772;4.804;2023-04-26T07:24:48;99751.91;;;12.82
74321;BMP280;62738;45.772;4.804;2023-04-26T07:27:14;99746.75;;;13.14
74321;BMP280;62738;45.772;4.804;2023-04-26T07:29:41;99753.00;;;12.96
74321;BMP280;62738;45.772;4.804;2023-04-26T07:32:07;99744.88;;;13.27
74321;BMP280;62738;45.772;4.804;2023-04-26T07:34:34;99746.53;;;13.39
74321;BMP280;62738;45.772;4.804;2023-04-26T07:37:01;99743.63;;;13.56
74321;BMP280;62738;45.772;4.804;2023-04-26T07:39:27;99753.91;;;13.64
74321;BMP280;62738;45.772;4.804;2023-04-26T07:41:54;99746.56;;;13.87
74321;BMP280;62738;45.772;4.804;2023-04-26T07:44:20;99747.56;;;14.11
74321;BMP280;62738;45.772;4.804;2023-04-26T07:46:47;99749.00;;;14.22
74321;BMP280;62738;45.772;4.804;2023-04-26T07:49:14;99746.53;;;14.26
74321;BMP280;62738;45.772;4.804;2023-04-26T07:51:42;99751.59;;;14.39
74321;BMP280;62738;45.772;4.804;2023-04-26T07:54:09;99748.00;;;14.17
74321;BMP280;62738;45.772;4.804;2023-04-26T07:56:36;99752.13;;;13.78
74321;BMP280;62738;45.772;4.804;2023-04-26T07:59:02;99748.63;;;13.87
74321;BMP280;62738;45.772;4.804;2023-04-26T08:01:30;99746.69;;;13.80
74321;BMP280;62738;45.772;4.804;2023-04-26T08:03:56;99754.31;;;14.08
74321;BMP280;62738;45.772;4.804;2023-04-26T08:06:24;99747.69;;;14.32
74321;BMP280;62738;45.772;4.804;2023-04-26T08:08:52;99747.94;;;14.36
74321;BMP280;62738;45.772;4.804;2023-04-26T08:11:19;99748.19;;;14.60
74321;BMP280;62738;45.772;4.804;2023-04-26T08:13:46;99745.44;;;14.91
74321;BMP280;62738;45.772;4.804;2023-04-26T08:16:13;99742.97;;;14.75
74321;BMP280;62738;45.772;4.804;2023-04-26T08:18:40;99739.63;;;14.98
74321;BMP280;62738;45.772;4.804;2023-04-26T08:21:10;99744.97;;;14.94
74321;BMP280;62738;45.772;4.804;2023-04-26T08:23:37;99751.63;;;15.10
74321;BMP280;62738;45.772;4.804;2023-04-26T08:26:04;99745.59;;;15.14
74321;BMP280;62738;45.772;4.804;2023-04-26T08:28:32;99735.28;;;14.95
74321;BMP280;62738;45.772;4.804;2023-04-26T08:30:58;99746.38;;;15.05
74321;BMP280;62738;45.772;4.804;2023-04-26T08:33:25;99742.25;;;15.27
74321;BMP280;62738;45.772;4.804;2023-04-26T08:35:52;99740.28;;;15.18
74321;BMP280;62738;45.772;4.804;2023-04-26T08:38:18;99746.50;;;15.07
74321;BMP280;62738;45.772;4.804;2023-04-26T08:40:48;99742.38;;;15.08
74321;BMP280;62738;45.772;4.804;2023-04-26T08:43:14;99735.78;;;15.03
74321;BMP280;62738;45.772;4.804;2023-04-26T08:45:45;99731.91;;;15.08
74321;BMP280;62738;45.772;4.804;2023-04-26T08:48:12;99726.47;;;15.10
74321;BMP280;62738;45.772;4.804;2023-04-26T08:50:44;99728.78;;;15.23
74321;BMP280;62738;45.772;4.804;2023-04-26T08:53:15;99722.78;;;15.17
74321;BMP280;62738;45.772;4.804;2023-04-26T08:55:50;99723.69;;;15.31
74321;BMP280;62738;45.772;4.804;2023-04-26T08:58:17;99725.34;;;15.67
74321;BMP280;62738;45.772;4.804;2023-04-26T09:00:44;99722.13;;;15.83
74321;BMP280;62738;45.772;4.804;2023-04-26T09:03:13;99716.69;;;16.08
74321;BMP280;62738;45.772;4.804;2023-04-26T09:05:41;99718.34;;;15.78
74321;BMP280;62738;45.772;4.804;2023-04-26T09:08:14;99706.69;;;15.93
74321;BMP280;62738;45.772;4.804;2023-04-26T09:10:41;99713.56;;;16.13
74321;BMP280;62738;45.772;4.804;2023-04-26T09:13:08;99711.03;;;16.64
74321;BMP280;62738;45.772;4.804;2023-04-26T09:15:35;99714.19;;;16.93
74321;BMP280;62738;45.772;4.804;2023-04-26T09:18:21;99706.25;;;16.90
74321;BMP280;62738;45.772;4.804;2023-04-26T09:21:02;99712.41;;;17.23
74321;BMP280;62738;45.772;4.804;2023-04-26T09:23:29;99714.44;;;17.34
74321;BMP280;62738;45.772;4.804;2023-04-26T09:26:14;99705.84;;;17.55
74321;BMP280;62738;45.772;4.804;2023-04-26T09:28:41;99712.91;;;17.70
74321;BMP280;62738;45.772;4.804;2023-04-26T09:31:08;99704.03;;;17.74
74321;BMP280;62738;45.772;4.804;2023-04-26T09:33:35;99708.03;;;17.20
74321;BMP280;62738;45.772;4.804;2023-04-26T09:36:10;99704.41;;;17.93
74321;BMP280;62738;45.772;4.804;2023-04-26T09:38:41;99702.00;;;17.63
74321;BMP280;62738;45.772;4.804;2023-04-26T09:41:08;99695.06;;;17.38
74321;BMP280;62738;45.772;4.804;2023-04-26T09:43:38;99692.34;;;17.40
74321;BMP280;62738;45.772;4.804;2023-04-26T09:46:04;99694.66;;;17.44
74321;BMP280;62738;45.772;4.804;2023-04-26T09:48:33;99688.94;;;17.67
74321;BMP280;62738;45.772;4.804;2023-04-26T09:53:34;99689.81;;;17.83
74321;BMP280;62738;45.772;4.804;2023-04-26T09:56:23;99685.56;;;17.82
74321;BMP280;62738;45.772;4.804;2023-04-26T09:58:57;99689.91;;;17.85
74321;BMP280;62738;45.772;4.804;2023-04-26T10:01:25;99689.22;;;17.34
74321;BMP280;62738;45.772;4.804;2023-04-26T10:03:52;99695.03;;;17.89
74321;BMP280;62738;45.772;4.804;2023-04-26T10:06:19;99682.72;;;18.21
74321;BMP280;62738;45.772;4.804;2023-04-26T10:08:45;99687.19;;;18.13
74321;BMP280;62738;45.772;4.804;2023-04-26T10:11:12;99684.34;;;17.60
74321;BMP280;62738;45.772;4.804;2023-04-26T10:13:40;99685.22;;;17.76
74321;BMP280;62738;45.772;4.804;2023-04-26T10:16:08;99683.78;;;18.28
74321;BMP280;62738;45.772;4.804;2023-04-26T10:18:36;99679.00;;;18.44
74321;BMP280;62738;45.772;4.804;2023-04-26T10:21:12;99678.28;;;18.57
74321;BMP280;62738;45.772;4.804;2023-04-26T10:23:40;99686.78;;;18.86
74321;BMP280;62738;45.772;4.804;2023-04-26T10:29:14;99674.84;;;18.45
74321;BMP280;62738;45.772;4.804;2023-04-26T10:34:28;99663.91;;;18.51
74321;BMP280;62738;45.772;4.804;2023-04-26T10:37:13;99656.59;;;18.87
74321;BMP280;62738;45.772;4.804;2023-04-26T10:39:41;99649.75;;;19.19
74321;BMP280;62738;45.772;4.804;2023-04-26T10:42:27;99643.38;;;19.19
74321;BMP280;62738;45.772;4.804;2023-04-26T10:45:28;99648.28;;;19.34
74321;BMP280;62738;45.772;4.804;2023-04-26T10:56:10;99626.81;;;19.56
74321;BMP280;62738;45.772;4.804;2023-04-26T10:58:40;99621.22;;;19.87
74321;BMP280;62738;45.772;4.804;2023-04-26T11:01:16;99616.84;;;20.00
74321;BMP280;62738;45.772;4.804;2023-04-26T11:06:24;99601.03;;;19.46
74321;BMP280;62738;45.772;4.804;2023-04-26T11:08:52;99606.59;;;19.44
74321;BMP280;62738;45.772;4.804;2023-04-26T11:11:25;99616.38;;;19.43
74321;BMP280;62738;45.772;4.804;2023-04-26T11:13:52;99607.59;;;19.51
74321;BMP280;62738;45.772;4.804;2023-04-26T11:16:19;99600.16;;;19.41
74321;BMP280;62738;45.772;4.804;2023-04-26T11:18:46;99603.16;;;18.58
74321;BMP280;62738;45.772;4.804;2023-04-26T11:21:13;99600.16;;;18.26
74321;BMP280;62738;45.772;4.804;2023-04-26T11:23:52;99606.78;;;18.05
74321;BMP280;62738;45.772;4.804;2023-04-26T11:26:19;99600.13;;;18.40
74321;BMP280;62738;45.772;4.804;2023-04-26T11:28:47;99600.41;;;18.73
74321;BMP280;62738;45.772;4.804;2023-04-26T11:31:14;99602.25;;;19.12
74321;BMP280;62738;45.772;4.804;2023-04-26T11:33:40;99604.56;;;19.01
74321;BMP280;62738;45.772;4.804;2023-04-26T11:36:07;99601.22;;;19.34
74321;BMP280;62738;45.772;4.804;2023-04-26T11:38:34;99605.59;;;19.84
74321;BMP280;62738;45.772;4.804;2023-04-26T11:41:02;99608.78;;;19.92
74321;BMP280;62738;45.772;4.804;2023-04-26T11:43:36;99591.78;;;19.90
74321;BMP280;62738;45.772;4.804;2023-04-26T11:46:04;99591.31;;;20.12
74321;BMP280;62738;45.772;4.804;2023-04-26T11:48:34;99583.50;;;20.10
74321;BMP280;62738;45.772;4.804;2023-04-26T11:51:03;99576.13;;;20.03
74321;BMP280;62738;45.772;4.804;2023-04-26T11:53:37;99568.69;;;20.43
74321;BMP280;62738;45.772;4.804;2023-04-26T11:56:20;99567.78;;;20.38
74321;BMP280;62738;45.772;4.804;2023-04-26T11:58:51;99562.81;;;20.55
74321;BMP280;62738;45.772;4.804;2023-04-26T12:01:23;99561.88;;;19.99
74321;BMP280;62738;45.772;4.804;2023-04-26T12:03:55;99570.38;;;19.36
74321;BMP280;62738;45.772;4.804;2023-04-26T12:06:50;99564.19;;;19.40
74321;BMP280;62738;45.772;4.804;2023-04-26T12:09:21;99556.88;;;19.04
74321;BMP280;62738;45.772;4.804;2023-04-26T12:11:55;99564.56;;;19.48
74321;BMP280;62738;45.772;4.804;2023-04-26T12:14:23;99562.56;;;20.15
74321;BMP280;62738;45.772;4.804;2023-04-26T12:16:49;99561.84;;;20.48
74321;BMP280;62738;45.772;4.804;2023-04-26T12:19:16;99570.16;;;20.28
74321;BMP280;62738;45.772;4.804;2023-04-26T12:21:43;99558.78;;;20.42
74321;BMP280;62738;45.772;4.804;2023-04-26T12:24:27;99569.09;;;20.53
74321;BMP280;62738;45.772;4.804;2023-04-26T12:27:00;99560.06;;;20.74
74321;BMP280;62738;45.772;4.804;2023-04-26T12:29:29;99559.00;;;20.83
74321;BMP280;62738;45.772;4.804;2023-04-26T12:31:59;99562.00;;;20.87
74321;BMP280;62738;45.772;4.804;2023-04-26T12:34:26;99560.81;;;20.92
74321;BMP280;62738;45.772;4.804;2023-04-26T12:36:53;99564.91;;;20.89
74321;BMP280;62738;45.772;4.804;2023-04-26T12:39:20;99560.81;;;20.92
74321;BMP280;62738;45.772;4.804;2023-04-26T12:41:46;99561.16;;;21.20
74321;BMP280;62738;45.772;4.804;2023-04-26T12:44:14;99565.00;;;21.29
74321;BMP280;62738;45.772;4.804;2023-04-26T12:46:41;99560.44;;;21.20
74321;BMP280;62738;45.772;4.804;2023-04-26T12:49:08;99550.19;;;21.28
74321;BMP280;62738;45.772;4.804;2023-04-26T12:51:34;99556.31;;;21.23
74321;BMP280;62738;45.772;4.804;2023-04-26T12:54:01;99553.53;;;21.62
74321;BMP280;62738;45.772;4.804;2023-04-26T12:56:28;99549.38;;;21.26
74321;BMP280;62738;45.772;4.804;2023-04-26T12:58:55;99546.91;;;21.36
74321;BMP280;62738;45.772;4.804;2023-04-26T13:01:22;99547.78;;;21.40
74321;BMP280;62738;45.772;4.804;2023-04-26T13:03:49;99550.03;;;21.83
74321;BMP280;62738;45.772;4.804;2023-04-26T13:06:16;99541.16;;;22.34
74321;BMP280;62738;45.772;4.804;2023-04-26T13:08:42;99541.16;;;22.13
74321;BMP280;62738;45.772;4.804;2023-04-26T13:11:09;99546.22;;;22.38
74321;BMP280;62738;45.772;4.804;2023-04-26T13:13:36;99540.91;;;22.48
74321;BMP280;62738;45.772;4.804;2023-04-26T13:16:10;99542.59;;;22.35
74321;BMP280;62738;45.772;4.804;2023-04-26T13:18:39;99529.78;;;22.11
74321;BMP280;62738;45.772;4.804;2023-04-26T13:21:06;99544.16;;;21.97
74321;BMP280;62738;45.772;4.804;2023-04-26T13:23:33;99530.19;;;22.23
74321;BMP280;62738;45.772;4.804;2023-04-26T13:25:59;99525.34;;;21.84
74321;BMP280;62738;45.772;4.804;2023-04-26T13:28:26;99527.47;;;22.05
74321;BMP280;62738;45.772;4.804;2023-04-26T13:30:52;99529.25;;;22.38
74321;BMP280;62738;45.772;4.804;2023-04-26T13:33:19;99532.91;;;22.64
74321;BMP280;62738;45.772;4.804;2023-04-26T13:35:46;99523.94;;;22.48
74321;BMP280;62738;45.772;4.804;2023-04-26T13:38:13;99524.00;;;22.50
74321;BMP280;62738;45.772;4.804;2023-04-26T13:40:42;99530.69;;;22.82
74321;BMP280;62738;45.772;4.804;2023-04-26T13:43:08;99521.03;;;23.15
74321;BMP280;62738;45.772;4.804;2023-04-26T13:45:35;99531.53;;;23.36
74321;BMP280;62738;45.772;4.804;2023-04-26T13:48:02;99530.75;;;23.34
74321;BMP280;62738;45.772;4.804;2023-04-26T13:50:29;99521.94;;;23.75
74321;BMP280;62738;45.772;4.804;2023-04-26T13:52:55;99521.22;;;23.75
74321;BMP280;62738;45.772;4.804;2023-04-26T13:55:22;99526.13;;;24.00
74321;BMP280;62738;45.772;4.804;2023-04-26T13:57:49;99530.19;;;24.21
74321;BMP280;62738;45.772;4.804;2023-04-26T14:00:16;99527.19;;;23.87
74321;BMP280;62738;45.772;4.804;2023-04-26T14:02:43;99522.97;;;23.88
74321;BMP280;62738;45.772;4.804;2023-04-26T14:05:10;99523.97;;;23.71
74321;BMP280;62738;45.772;4.804;2023-04-26T14:07:36;99526.91;;;24.02
74321;BMP280;62738;45.772;4.804;2023-04-26T14:10:03;99522.25;;;23.34
74321;BMP280;62738;45.772;4.804;2023-04-26T14:12:30;99514.94;;;22.32
74321;BMP280;62738;45.772;4.804;2023-04-26T14:14:57;99520.66;;;21.90
74321;BMP280;62738;45.772;4.804;2023-04-26T14:17:23;99510.66;;;22.31
74321;BMP280;62738;45.772;4.804;2023-04-26T14:19:51;99497.06;;;22.47
74321;BMP280;62738;45.772;4.804;2023-04-26T14:22:20;99504.16;;;22.72
74321;BMP280;62738;45.772;4.804;2023-04-26T14:24:46;99494.66;;;23.09
74321;BMP280;62738;45.772;4.804;2023-04-26T14:27:13;99493.47;;;23.41
74321;BMP280;62738;45.772;4.804;2023-04-26T14:29:40;99494.97;;;23.72
74321;BMP280;62738;45.772;4.804;2023-04-26T14:32:06;99494.75;;;23.64